Angora, Minnesota
Current Conditions -  °F | °C
As of 9:54 AM on Wednesday 28 Jan 2015 (Local Time) from KCQM Reporting Station
Overcast Overcast  
Wind Chill: -10°   Ceiling: 700
Heat Index: -5°   Visibility: 7mi
Dew Point: -6°   Wind: 7mph
Humidity: 93%   Direction: 150°SSE
Pressure: 29.92"   Gusts: NA
Location:  47.77°N, 92.63°W
Report Text: KCQM 281554Z AUTO 15006KT 7SM OVC007 M05/M06 A2992 RMK AO2
Loading
Personal Weather Stations






























Interactive Weather Map New forecast layout! Learn more

10-Day Weather Forecast

Advertisements
Track Severe Weather on mobile